Time;durP1;ratioP1;P1;durP2;ratioP2;P2;SDS_P1;SDS_P2;PMS_P1;PMS_P2;Temp;Humidity;BMP_temperature;BMP_pressure;BME280_temperature;BME280_humidity;BME280_pressure;Samples;Min_cycle;Max_cycle;Signal;HPM_P1;HPM_P2
2021/01/22 00:01:42;;;;;;;0.97;0.97;;;10.80;99.50;;;;;;6215787;23;20413;-83
2021/01/22 00:04:08;;;;;;;1.00;1.00;;;10.80;99.60;;;;;;6215966;23;20442;-83
2021/01/22 00:06:34;;;;;;;1.00;0.90;;;10.70;99.80;;;;;;6215601;23;20178;-84
2021/01/22 00:09:01;;;;;;;0.70;0.70;;;10.60;99.90;;;;;;6215908;23;20203;-84
2021/01/22 00:11:27;;;;;;;1.20;0.80;;;10.60;99.90;;;;;;6215192;23;20645;-83
2021/01/22 00:13:54;;;;;;;0.70;0.70;;;10.50;99.90;;;;;;6215317;23;20180;-83
2021/01/22 00:16:20;;;;;;;0.80;0.80;;;10.40;99.90;;;;;;6215899;23;20178;-83
2021/01/22 00:18:46;;;;;;;2.20;0.80;;;10.30;99.90;;;;;;6215891;23;20206;-83
2021/01/22 00:21:13;;;;;;;0.85;0.85;;;10.30;99.90;;;;;;6215877;23;20178;-84
2021/01/22 00:23:39;;;;;;;0.70;0.70;;;10.20;99.90;;;;;;6215584;23;20197;-83
2021/01/22 00:26:05;;;;;;;0.60;0.60;;;10.20;99.90;;;;;;6215462;23;20178;-84
2021/01/22 00:28:32;;;;;;;1.40;0.80;;;10.10;99.90;;;;;;6215869;23;20202;-84
2021/01/22 00:30:59;;;;;;;0.88;0.88;;;10.00;99.90;;;;;;6224971;23;20170;-83
2021/01/22 00:33:25;;;;;;;1.05;0.63;;;9.90;99.90;;;;;;6218049;23;20179;-83
2021/01/22 00:35:52;;;;;;;1.15;0.70;;;9.90;99.90;;;;;;6215446;23;20182;-84
2021/01/22 00:38:18;;;;;;;0.90;0.80;;;9.80;99.90;;;;;;6215909;23;20203;-84
2021/01/22 00:40:44;;;;;;;0.98;0.88;;;9.70;99.90;;;;;;6215791;23;20484;-83
2021/01/22 00:43:11;;;;;;;1.50;0.85;;;9.70;99.90;;;;;;6215258;23;20246;-84
2021/01/22 00:45:37;;;;;;;0.80;0.80;;;9.60;99.90;;;;;;6216591;23;20250;-83
2021/01/22 00:48:06;;;;;;;1.80;0.80;;;9.60;99.90;;;;;;6228544;23;20214;-83
2021/01/22 00:50:32;;;;;;;1.02;0.90;;;9.50;99.90;;;;;;6238881;23;20717;-84
2021/01/22 00:52:58;;;;;;;0.95;0.70;;;9.50;99.90;;;;;;6217705;23;20178;-83
2021/01/22 00:55:25;;;;;;;0.40;0.40;;;9.50;99.90;;;;;;6216313;23;20185;-84
2021/01/22 00:57:51;;;;;;;0.95;0.85;;;9.40;99.90;;;;;;6215811;23;20197;-83
2021/01/22 01:00:18;;;;;;;0.70;0.70;;;9.40;99.90;;;;;;6215799;23;20182;-83
2021/01/22 01:02:44;;;;;;;0.98;0.98;;;9.40;99.90;;;;;;6215347;23;20184;-84
2021/01/22 01:05:12;;;;;;;0.80;0.80;;;9.40;99.90;;;;;;6215120;23;20189;-83
2021/01/22 01:07:38;;;;;;;1.15;0.70;;;9.30;99.90;;;;;;6215296;23;20217;-83
2021/01/22 01:10:05;;;;;;;0.70;0.70;;;9.30;99.90;;;;;;6215376;23;20262;-83
2021/01/22 01:12:32;;;;;;;0.93;0.93;;;9.20;99.90;;;;;;6215007;23;20189;-83
2021/01/22 01:14:58;;;;;;;1.35;0.90;;;9.20;99.90;;;;;;6215321;23;20174;-83
2021/01/22 01:17:24;;;;;;;0.85;0.82;;;9.20;99.90;;;;;;6223736;23;20162;-83
2021/01/22 01:19:50;;;;;;;0.50;0.50;;;9.20;99.90;;;;;;6218067;23;20174;-83
2021/01/22 01:22:18;;;;;;;0.60;0.60;;;9.20;99.90;;;;;;6214827;23;20177;-83
2021/01/22 01:24:44;;;;;;;0.85;0.85;;;9.20;99.90;;;;;;6214708;23;20202;-84
2021/01/22 01:27:10;;;;;;;0.90;0.90;;;9.20;99.90;;;;;;6214738;23;20182;-84
2021/01/22 01:29:36;;;;;;;1.08;0.98;;;9.30;99.90;;;;;;6214897;23;20202;-83
2021/01/22 01:32:03;;;;;;;0.73;0.73;;;9.30;99.90;;;;;;6215060;23;20178;-83
2021/01/22 01:34:29;;;;;;;1.10;0.70;;;9.30;99.90;;;;;;6215428;23;20178;-83
2021/01/22 01:36:55;;;;;;;0.50;0.47;;;9.30;99.90;;;;;;6224691;23;20177;-84
2021/01/22 01:39:22;;;;;;;0.50;0.50;;;9.30;99.90;;;;;;6226235;23;20547;-83
2021/01/22 01:41:48;;;;;;;0.70;0.60;;;9.40;99.90;;;;;;6224934;23;20188;-83
2021/01/22 01:44:15;;;;;;;0.70;0.70;;;9.40;99.90;;;;;;6221586;23;20205;-84
2021/01/22 01:46:41;;;;;;;0.52;0.50;;;9.50;99.90;;;;;;6214632;23;20220;-83
2021/01/22 01:49:07;;;;;;;0.50;0.40;;;9.60;99.90;;;;;;6214541;23;20213;-83
2021/01/22 01:51:34;;;;;;;0.93;0.80;;;9.60;99.90;;;;;;6214765;23;20169;-83
2021/01/22 01:54:01;;;;;;;0.88;0.88;;;9.60;99.90;;;;;;6214731;23;20178;-84
2021/01/22 01:56:28;;;;;;;0.70;0.70;;;9.60;99.90;;;;;;6214875;23;20186;-83
2021/01/22 01:58:54;;;;;;;0.40;0.40;;;9.70;99.90;;;;;;6214605;23;20198;-83
2021/01/22 02:01:23;;;;;;;0.80;0.80;;;9.70;99.90;;;;;;6214278;23;20545;-83
2021/01/22 02:03:49;;;;;;;1.13;0.60;;;9.70;99.90;;;;;;6222459;23;20199;-83
2021/01/22 02:06:15;;;;;;;0.60;0.60;;;9.70;99.90;;;;;;6219015;23;20185;-83
2021/01/22 02:08:42;;;;;;;1.23;1.10;;;9.70;99.90;;;;;;6214680;23;20202;-84
2021/01/22 02:11:11;;;;;;;0.60;0.60;;;9.80;99.90;;;;;;6214893;23;20179;-83
2021/01/22 02:13:40;;;;;;;0.80;0.80;;;9.70;99.90;;;;;;6214453;23;20174;-84
2021/01/22 02:16:07;;;;;;;1.13;0.70;;;9.70;99.90;;;;;;6214991;23;20189;-84
2021/01/22 02:18:33;;;;;;;0.75;0.65;;;9.70;99.90;;;;;;6214918;23;20306;-83
2021/01/22 02:21:09;;;;;;;0.85;0.70;;;9.70;99.90;;;;;;6214749;23;20186;-84
2021/01/22 02:23:40;;;;;;;1.05;0.60;;;9.70;99.90;;;;;;6214400;23;20477;-83
2021/01/22 02:26:26;;;;;;;1.35;0.82;;;9.80;99.90;;;;;;6214674;23;20224;-84
2021/01/22 02:28:56;;;;;;;0.80;0.75;;;9.70;99.90;;;;;;6214790;23;20220;-83
2021/01/22 02:31:23;;;;;;;1.05;0.90;;;9.70;99.90;;;;;;6216437;23;20186;-83
2021/01/22 02:33:51;;;;;;;2.25;0.80;;;9.80;99.90;;;;;;6216758;23;20178;-84
2021/01/22 02:36:19;;;;;;;0.60;0.60;;;9.70;99.90;;;;;;6216678;23;20634;-83
2021/01/22 02:38:47;;;;;;;1.45;1.35;;;9.70;99.90;;;;;;6216993;23;20203;-84
2021/01/22 02:41:15;;;;;;;0.85;0.85;;;9.70;99.90;;;;;;6216930;23;20188;-83
2021/01/22 02:43:43;;;;;;;2.00;0.90;;;9.70;99.90;;;;;;6216566;23;20709;-83
2021/01/22 02:46:10;;;;;;;0.95;0.77;;;9.70;99.90;;;;;;6216876;23;20182;-83
2021/01/22 02:48:38;;;;;;;3.72;1.30;;;9.60;99.90;;;;;;6217083;23;20681;-84
2021/01/22 02:51:10;;;;;;;1.35;0.63;;;9.60;99.90;;;;;;6225067;23;20182;-83
2021/01/22 02:53:36;;;;;;;4.13;1.38;;;9.60;99.90;;;;;;6216576;23;20163;-83
2021/01/22 02:56:06;;;;;;;3.13;0.90;;;9.60;99.90;;;;;;6217673;23;20178;-83
2021/01/22 02:58:40;;;;;;;1.15;0.88;;;9.50;99.90;;;;;;6216886;23;20198;-83
2021/01/22 03:01:12;;;;;;;0.90;0.90;;;9.50;99.90;;;;;;6217268;23;20166;-83
2021/01/22 03:03:47;;;;;;;1.02;0.80;;;9.50;99.90;;;;;;6216120;23;20225;-84
2021/01/22 03:06:21;;;;;;;0.70;0.70;;;9.40;99.90;;;;;;6217135;23;20166;-83
2021/01/22 03:08:48;;;;;;;2.28;1.20;;;9.40;99.90;;;;;;6217152;23;20198;-83
2021/01/22 03:11:16;;;;;;;1.55;1.45;;;9.40;99.90;;;;;;6216624;23;20697;-84
2021/01/22 03:13:44;;;;;;;1.90;0.80;;;9.30;99.90;;;;;;6216462;23;20492;-84
2021/01/22 03:16:11;;;;;;;3.03;0.80;;;9.30;99.90;;;;;;6217725;23;20185;-83
2021/01/22 03:18:37;;;;;;;1.90;1.00;;;9.20;99.90;;;;;;6216530;23;20190;-83
2021/01/22 03:21:11;;;;;;;1.55;1.10;;;9.20;99.90;;;;;;6217573;23;20511;-83
2021/01/22 03:23:37;;;;;;;0.65;0.65;;;9.20;99.90;;;;;;6217110;23;20192;-84
2021/01/22 03:26:03;;;;;;;1.10;1.00;;;9.20;99.90;;;;;;6217780;23;20502;-83
2021/01/22 03:28:29;;;;;;;1.73;0.90;;;9.20;99.90;;;;;;6218211;23;20252;-83
2021/01/22 03:30:55;;;;;;;1.75;1.30;;;9.10;99.90;;;;;;6217228;23;20554;-83
2021/01/22 03:33:23;;;;;;;4.28;1.30;;;9.10;99.90;;;;;;6216756;23;20178;-83
2021/01/22 03:35:49;;;;;;;1.40;0.95;;;9.10;99.90;;;;;;6218870;23;20177;-83
2021/01/22 03:38:15;;;;;;;1.00;0.82;;;9.00;99.90;;;;;;6229039;23;20212;-83
2021/01/22 03:40:41;;;;;;;3.25;1.70;;;9.10;99.90;;;;;;6218408;23;20189;-83
2021/01/22 03:43:07;;;;;;;1.25;1.15;;;9.10;99.90;;;;;;6216830;23;20189;-83
2021/01/22 03:45:33;;;;;;;1.33;0.90;;;9.10;99.90;;;;;;6217130;23;20182;-83
2021/01/22 03:48:00;;;;;;;1.98;1.10;;;9.10;99.90;;;;;;6218194;23;20198;-83
2021/01/22 03:50:27;;;;;;;0.80;0.80;;;9.00;99.90;;;;;;6218208;23;20186;-83
2021/01/22 03:52:53;;;;;;;1.23;0.93;;;8.90;99.90;;;;;;6217385;23;20189;-83
2021/01/22 03:55:19;;;;;;;2.65;1.08;;;9.00;99.90;;;;;;6218889;23;20181;-83
2021/01/22 03:57:45;;;;;;;2.40;1.00;;;9.00;99.90;;;;;;6218826;23;20206;-83
2021/01/22 04:00:13;;;;;;;1.45;1.10;;;9.10;99.90;;;;;;6218579;23;20185;-83
2021/01/22 04:02:39;;;;;;;2.40;1.25;;;9.00;99.90;;;;;;6217892;23;20184;-84
2021/01/22 04:05:06;;;;;;;1.30;1.20;;;9.00;99.90;;;;;;6218239;23;20201;-83
2021/01/22 04:07:33;;;;;;;1.20;0.85;;;9.00;99.90;;;;;;6218518;23;20186;-83
2021/01/22 04:10:00;;;;;;;1.02;0.93;;;9.00;99.90;;;;;;6218239;23;20178;-83
2021/01/22 04:12:26;;;;;;;1.85;1.17;;;9.00;99.90;;;;;;6218812;23;20691;-83
2021/01/22 04:14:52;;;;;;;0.88;0.70;;;9.00;99.90;;;;;;6218231;23;20181;-84
2021/01/22 04:17:18;;;;;;;1.00;0.90;;;9.00;99.90;;;;;;6219240;23;20197;-83
2021/01/22 04:19:44;;;;;;;1.77;1.00;;;9.00;99.90;;;;;;6218468;23;20634;-84
2021/01/22 04:22:10;;;;;;;4.13;1.30;;;9.00;99.90;;;;;;6219990;23;20178;-83
2021/01/22 04:24:38;;;;;;;1.40;1.02;;;9.00;99.90;;;;;;6229503;23;20194;-83
2021/01/22 04:27:04;;;;;;;1.50;0.98;;;9.00;99.90;;;;;;6222081;23;20625;-83
2021/01/22 04:29:31;;;;;;;1.92;1.50;;;9.00;99.90;;;;;;6220316;23;20530;-83
2021/01/22 04:31:57;;;;;;;2.50;1.00;;;9.00;99.90;;;;;;6219362;23;20569;-83
2021/01/22 04:34:23;;;;;;;4.22;1.58;;;9.00;99.90;;;;;;6219667;23;20181;-83
2021/01/22 04:36:49;;;;;;;1.75;1.00;;;9.10;99.90;;;;;;6220056;23;20189;-82
2021/01/22 04:39:15;;;;;;;1.95;0.95;;;9.10;99.90;;;;;;6219525;23;20248;-83
2021/01/22 04:41:43;;;;;;;3.70;1.15;;;9.20;99.90;;;;;;6231340;23;20185;-83
2021/01/22 04:44:10;;;;;;;1.38;1.25;;;9.20;99.80;;;;;;6241164;23;20185;-82
2021/01/22 04:46:37;;;;;;;1.77;1.00;;;9.20;99.80;;;;;;6230190;23;20237;-83
2021/01/22 04:49:05;;;;;;;0.80;0.80;;;9.30;99.80;;;;;;6220249;23;20210;-83
2021/01/22 04:51:33;;;;;;;0.90;0.90;;;9.40;99.70;;;;;;6219994;23;20178;-83
2021/01/22 04:54:04;;;;;;;0.93;0.82;;;9.40;99.50;;;;;;6220096;23;20209;-83
2021/01/22 04:56:34;;;;;;;0.90;0.85;;;9.40;99.50;;;;;;6220035;23;20158;-83
2021/01/22 04:59:04;;;;;;;1.65;0.60;;;9.40;99.70;;;;;;6219422;23;20217;-83
2021/01/22 05:01:31;;;;;;;1.35;0.63;;;9.50;99.70;;;;;;6219131;23;20252;-84
2021/01/22 05:03:58;;;;;;;1.27;0.60;;;9.50;99.60;;;;;;6217894;23;20198;-83
2021/01/22 05:06:24;;;;;;;0.70;0.70;;;9.60;99.60;;;;;;6218117;23;20182;-83
2021/01/22 05:08:52;;;;;;;0.63;0.63;;;9.60;99.60;;;;;;6217910;23;20204;-83
2021/01/22 05:11:19;;;;;;;0.70;0.50;;;9.60;99.60;;;;;;6228789;23;20188;-83
2021/01/22 05:13:45;;;;;;;0.70;0.57;;;9.60;99.70;;;;;;6217191;23;20189;-83
2021/01/22 05:16:15;;;;;;;0.45;0.45;;;9.50;99.80;;;;;;6216479;23;20209;-83
2021/01/22 05:18:41;;;;;;;0.70;0.52;;;9.60;99.90;;;;;;6217639;23;20349;-83
2021/01/22 05:21:09;;;;;;;0.80;0.80;;;9.60;99.90;;;;;;6218334;23;20178;-84
2021/01/22 05:23:38;;;;;;;1.45;0.73;;;9.50;99.90;;;;;;6219560;23;20200;-84
2021/01/22 05:26:06;;;;;;;0.88;0.70;;;9.60;99.90;;;;;;6220536;23;20216;-84
2021/01/22 05:28:37;;;;;;;0.70;0.70;;;9.60;99.90;;;;;;6219883;23;20202;-84
2021/01/22 05:31:03;;;;;;;1.35;0.70;;;9.60;99.90;;;;;;6220349;23;20197;-85
2021/01/22 05:33:30;;;;;;;2.35;0.75;;;9.60;99.90;;;;;;6220177;23;20258;-84
2021/01/22 05:35:57;;;;;;;0.60;0.50;;;9.50;99.90;;;;;;6220435;23;20178;-84
2021/01/22 05:38:39;;;;;;;0.40;0.40;;;9.50;99.90;;;;;;6219700;23;20201;-84
2021/01/22 05:41:07;;;;;;;0.60;0.55;;;9.50;99.90;;;;;;6219292;23;20181;-84
2021/01/22 05:43:38;;;;;;;0.45;0.30;;;9.50;99.90;;;;;;6218816;23;20193;-84
2021/01/22 05:46:12;;;;;;;0.85;0.85;;;9.50;99.90;;;;;;6220559;23;20188;-85
2021/01/22 05:48:39;;;;;;;0.57;0.57;;;9.40;99.90;;;;;;6219320;23;20193;-84
2021/01/22 05:51:06;;;;;;;1.15;0.50;;;9.50;99.90;;;;;;6219942;23;20172;-84
2021/01/22 05:53:33;;;;;;;0.40;0.40;;;9.50;99.90;;;;;;6219864;23;20178;-85
2021/01/22 05:56:06;;;;;;;0.60;0.60;;;9.40;99.90;;;;;;6221200;23;20217;-84
2021/01/22 05:58:33;;;;;;;0.77;0.70;;;9.40;99.90;;;;;;6229618;23;20202;-84
2021/01/22 06:01:11;;;;;;;5.72;0.77;;;9.40;99.90;;;;;;6219356;23;20182;-83
2021/01/22 06:03:39;;;;;;;1.10;0.45;;;9.40;99.90;;;;;;6219251;23;20208;-85
2021/01/22 06:06:07;;;;;;;0.80;0.43;;;9.40;99.90;;;;;;6220855;23;20201;-84
2021/01/22 06:08:33;;;;;;;0.75;0.60;;;9.40;99.90;;;;;;6220723;23;20244;-84
2021/01/22 06:11:01;;;;;;;0.52;0.40;;;9.40;99.90;;;;;;6220876;23;20178;-85
2021/01/22 06:13:30;;;;;;;0.40;0.40;;;9.40;99.90;;;;;;6220629;23;20661;-84
2021/01/22 06:15:57;;;;;;;0.40;0.40;;;9.40;99.90;;;;;;6222532;23;20267;-84
2021/01/22 06:18:29;;;;;;;0.82;0.82;;;9.30;99.90;;;;;;6221011;23;20532;-85
2021/01/22 06:21:04;;;;;;;1.02;0.40;;;9.30;99.90;;;;;;6222531;23;20158;-84
2021/01/22 06:23:33;;;;;;;0.60;0.60;;;9.30;99.90;;;;;;6221915;23;20164;-84
2021/01/22 06:26:03;;;;;;;0.60;0.60;;;9.30;99.90;;;;;;6221604;23;20677;-85
2021/01/22 06:28:30;;;;;;;1.40;1.35;;;9.30;99.90;;;;;;6222108;23;20199;-86
2021/01/22 06:30:57;;;;;;;0.40;0.40;;;9.30;99.90;;;;;;6222133;23;20688;-85
2021/01/22 06:33:24;;;;;;;0.50;0.50;;;9.30;99.90;;;;;;6221579;23;20204;-85
2021/01/22 06:35:52;;;;;;;0.75;0.70;;;9.30;99.90;;;;;;6221804;23;20249;-84
2021/01/22 06:38:22;;;;;;;0.55;0.47;;;9.20;99.90;;;;;;6222147;23;20257;-83
2021/01/22 06:40:51;;;;;;;0.80;0.70;;;9.30;99.90;;;;;;6221804;23;20166;-84
2021/01/22 06:43:17;;;;;;;0.40;0.38;;;9.30;99.90;;;;;;6225461;23;20177;-85
2021/01/22 06:45:44;;;;;;;0.40;0.40;;;9.30;99.90;;;;;;6226627;23;20232;-85
2021/01/22 06:48:11;;;;;;;0.60;0.60;;;9.30;99.90;;;;;;6220367;23;20681;-85
2021/01/22 06:50:38;;;;;;;1.10;0.77;;;9.20;99.90;;;;;;6219544;23;20803;-84
2021/01/22 06:53:12;;;;;;;0.30;0.30;;;9.30;99.90;;;;;;6219690;23;20178;-84
2021/01/22 06:56:08;;;;;;;0.88;0.70;;;9.20;99.90;;;;;;6220310;23;20296;-85
2021/01/22 06:58:34;;;;;;;0.70;0.57;;;9.20;99.90;;;;;;6220186;23;20202;-85
2021/01/22 07:01:02;;;;;;;0.95;0.57;;;9.20;99.90;;;;;;6221077;23;20177;-85
2021/01/22 07:03:50;;;;;;;0.47;0.40;;;9.20;99.90;;;;;;6221056;23;20208;-85
2021/01/22 07:06:48;;;;;;;0.73;0.60;;;9.20;99.90;;;;;;6223176;23;20205;-84
2021/01/22 07:09:15;;;;;;;2.15;1.10;;;9.20;99.90;;;;;;6223678;23;20202;-85
2021/01/22 07:11:56;;;;;;;1.20;0.90;;;9.10;99.90;;;;;;6221952;23;20185;-85
2021/01/22 07:14:36;;;;;;;0.40;0.40;;;9.10;99.90;;;;;;6230310;23;20162;-85
2021/01/22 07:17:15;;;;;;;1.65;0.60;;;9.10;99.90;;;;;;6231065;23;20563;-85
2021/01/22 07:19:48;;;;;;;0.60;0.60;;;9.10;99.90;;;;;;6229663;23;20171;-84
2021/01/22 07:22:15;;;;;;;2.45;1.58;;;9.10;99.90;;;;;;6230639;23;20159;-86
2021/01/22 07:24:44;;;;;;;1.17;0.70;;;9.10;99.90;;;;;;6229529;23;20237;-83
2021/01/22 07:27:14;;;;;;;0.80;0.73;;;9.10;99.90;;;;;;6228316;23;20185;-84
2021/01/22 07:29:40;;;;;;;1.52;0.73;;;9.10;99.90;;;;;;6231444;23;20202;-82
2021/01/22 07:32:09;;;;;;;1.63;0.93;;;9.10;99.90;;;;;;6232855;23;20199;-83
2021/01/22 07:34:57;;;;;;;0.75;0.75;;;9.20;99.90;;;;;;6227679;23;20197;-83
2021/01/22 07:37:24;;;;;;;1.30;0.68;;;9.20;99.90;;;;;;6227621;23;20162;-83
2021/01/22 07:39:52;;;;;;;1.13;0.93;;;9.20;99.90;;;;;;6224260;23;20178;-85
2021/01/22 07:42:21;;;;;;;1.33;0.73;;;9.20;99.90;;;;;;6223489;23;20196;-83
2021/01/22 07:44:49;;;;;;;1.75;1.05;;;9.20;99.90;;;;;;6225507;23;20221;-83
2021/01/22 07:47:30;;;;;;;2.20;0.70;;;9.20;99.90;;;;;;6226030;23;20189;-83
2021/01/22 07:49:58;;;;;;;1.08;0.60;;;9.20;99.90;;;;;;6226251;23;20241;-84
2021/01/22 07:52:25;;;;;;;0.60;0.60;;;9.20;99.90;;;;;;6224142;23;20467;-83
2021/01/22 07:54:52;;;;;;;1.05;0.63;;;9.30;99.90;;;;;;6224944;23;20233;-84
2021/01/22 07:57:20;;;;;;;1.58;0.75;;;9.30;99.90;;;;;;6225063;23;20182;-83
2021/01/22 07:59:47;;;;;;;1.55;0.60;;;9.30;99.90;;;;;;6226789;23;20650;-84
2021/01/22 08:02:15;;;;;;;0.60;0.50;;;9.40;99.90;;;;;;6227859;23;20174;-82
2021/01/22 08:04:42;;;;;;;1.75;0.73;;;9.40;99.90;;;;;;6225065;23;20197;-81
2021/01/22 08:07:14;;;;;;;0.63;0.63;;;9.40;99.90;;;;;;6219711;23;20189;-85
2021/01/22 08:09:57;;;;;;;0.60;0.60;;;9.40;99.90;;;;;;6216781;23;20204;-85
2021/01/22 08:12:24;;;;;;;0.40;0.40;;;9.50;99.90;;;;;;6213840;23;20188;-83
2021/01/22 08:14:51;;;;;;;0.55;0.55;;;9.60;99.90;;;;;;6220982;23;20174;-84
2021/01/22 08:17:18;;;;;;;0.82;0.65;;;9.60;99.90;;;;;;6227296;23;20182;-84
2021/01/22 08:19:44;;;;;;;0.60;0.60;;;9.70;99.90;;;;;;6215763;23;20564;-84
2021/01/22 08:22:15;;;;;;;0.45;0.45;;;9.70;99.90;;;;;;6217987;23;20182;-83
2021/01/22 08:24:48;;;;;;;1.40;0.65;;;9.80;99.90;;;;;;6217333;23;20183;-83
2021/01/22 08:27:15;;;;;;;1.67;0.63;;;9.90;99.90;;;;;;6214473;23;20167;-83
2021/01/22 08:29:43;;;;;;;1.05;0.32;;;10.00;99.20;;;;;;6215662;23;20205;-83
2021/01/22 08:32:12;;;;;;;0.95;0.70;;;10.10;99.20;;;;;;6219894;23;20178;-83
2021/01/22 08:34:38;;;;;;;0.57;0.50;;;10.10;99.10;;;;;;6218761;23;20180;-83
2021/01/22 08:37:08;;;;;;;1.70;0.93;;;10.10;99.00;;;;;;6216223;23;20647;-83
2021/01/22 08:39:54;;;;;;;0.50;0.40;;;10.20;99.00;;;;;;6215578;23;20195;-83
2021/01/22 08:42:22;;;;;;;0.75;0.47;;;10.20;98.70;;;;;;6240618;23;20183;-81
2021/01/22 08:44:54;;;;;;;0.80;0.80;;;10.30;98.60;;;;;;6238429;23;20206;-82
2021/01/22 08:47:20;;;;;;;0.95;0.80;;;10.30;98.40;;;;;;6224698;23;20774;-83
2021/01/22 08:49:54;;;;;;;0.60;0.40;;;10.30;98.40;;;;;;6218359;23;20184;-83
2021/01/22 08:52:21;;;;;;;1.10;1.10;;;10.40;98.40;;;;;;6222590;23;20179;-83
2021/01/22 08:54:51;;;;;;;2.15;0.82;;;10.40;98.20;;;;;;6223039;23;20178;-83
2021/01/22 08:57:17;;;;;;;0.70;0.70;;;10.40;98.20;;;;;;6220784;23;20184;-84
2021/01/22 08:59:48;;;;;;;0.80;0.67;;;10.50;98.10;;;;;;6223881;23;20186;-84
2021/01/22 09:02:16;;;;;;;1.70;1.00;;;10.50;97.90;;;;;;6223989;23;20826;-84
2021/01/22 09:04:42;;;;;;;0.88;0.70;;;10.60;97.80;;;;;;6226263;23;20542;-83
2021/01/22 09:07:16;;;;;;;0.80;0.80;;;10.60;97.70;;;;;;6220365;23;20207;-85
2021/01/22 09:09:46;;;;;;;1.00;0.80;;;10.70;97.60;;;;;;6221094;23;20168;-84
2021/01/22 09:12:17;;;;;;;4.17;1.27;;;10.80;97.70;;;;;;6223636;23;20415;-83
2021/01/22 10:46:11;;;;;;;2.03;0.90;;;12.60;94.70;;;;;;6092981;23;20439;-86
2021/01/22 10:48:37;;;;;;;1.90;0.87;;;12.60;94.90;;;;;;6126180;23;20495;-89
2021/01/22 10:51:05;;;;;;;1.03;0.90;;;12.60;95.10;;;;;;6214521;23;20393;-89
2021/01/22 10:53:33;;;;;;;1.10;0.97;;;12.70;95.00;;;;;;6215570;23;20410;-89
2021/01/22 10:55:59;;;;;;;0.50;0.50;;;12.80;94.80;;;;;;6216541;23;20499;-88
2021/01/22 10:58:26;;;;;;;0.80;0.80;;;12.90;94.80;;;;;;6212099;23;20436;-86
2021/01/22 11:00:52;;;;;;;1.37;0.80;;;13.20;94.50;;;;;;6215965;23;20432;-86
2021/01/22 11:03:20;;;;;;;1.77;0.80;;;13.40;94.30;;;;;;6215487;23;20415;-87
2021/01/22 11:05:47;;;;;;;0.50;0.50;;;13.60;94.10;;;;;;6215703;23;20444;-89
2021/01/22 11:08:13;;;;;;;0.53;0.53;;;13.70;93.50;;;;;;6215699;23;20436;-89
2021/01/22 11:10:39;;;;;;;1.70;0.90;;;13.90;93.50;;;;;;6215572;23;20908;-88
2021/01/22 11:13:06;;;;;;;0.67;0.67;;;14.50;93.40;;;;;;6215262;23;20723;-88
2021/01/22 11:15:34;;;;;;;0.73;0.70;;;15.00;93.00;;;;;;6215792;23;20410;-89
2021/01/22 11:18:00;;;;;;;0.93;0.40;;;15.60;92.10;;;;;;6215462;23;20437;-89
2021/01/22 11:20:27;;;;;;;0.53;0.50;;;15.90;91.00;;;;;;6215661;23;20410;-88
2021/01/22 11:22:53;;;;;;;1.83;1.00;;;15.90;90.00;;;;;;6215571;23;20776;-86
2021/01/22 11:25:21;;;;;;;0.83;0.80;;;15.60;90.00;;;;;;6220230;23;20450;-88
2021/01/22 11:27:48;;;;;;;0.60;0.60;;;15.40;90.20;;;;;;6215340;23;20520;-86
2021/01/22 11:30:16;;;;;;;0.77;0.70;;;15.20;90.50;;;;;;6216138;23;20885;-88
2021/01/22 11:32:42;;;;;;;0.80;0.70;;;15.00;90.40;;;;;;6215529;23;20885;-88
2021/01/22 11:35:11;;;;;;;1.57;0.70;;;14.90;90.80;;;;;;6215944;23;20409;-89
2021/01/22 11:37:40;;;;;;;0.80;0.67;;;14.80;91.20;;;;;;6215686;23;21013;-88
2021/01/22 11:40:08;;;;;;;0.60;0.60;;;14.90;91.30;;;;;;6215756;23;20406;-87
2021/01/22 11:42:35;;;;;;;1.87;1.00;;;14.90;91.30;;;;;;6215196;23;20996;-88
2021/01/22 11:45:01;;;;;;;0.70;0.67;;;15.10;91.40;;;;;;6215604;23;20454;-88
2021/01/22 11:47:27;;;;;;;1.43;1.00;;;15.10;90.90;;;;;;6215646;23;20413;-87
2021/01/22 11:49:54;;;;;;;0.43;0.43;;;15.20;90.60;;;;;;6215751;23;20409;-86
2021/01/22 11:52:20;;;;;;;1.27;0.90;;;15.30;90.50;;;;;;6215058;23;20413;-85
2021/01/22 11:54:47;;;;;;;1.03;0.70;;;15.30;90.40;;;;;;6217993;23;20411;-90
2021/01/22 11:57:45;;;;;;;0.73;0.73;;;15.20;90.30;;;;;;6216379;23;20778;-88
2021/01/22 12:03:33;;;;;;;1.57;0.60;;;14.90;90.00;;;;;;6215215;23;20424;-88
2021/01/22 12:06:00;;;;;;;1.00;0.90;;;14.80;89.80;;;;;;6215391;23;20921;-87
2021/01/22 12:08:26;;;;;;;2.33;0.87;;;14.60;89.60;;;;;;6215595;23;20472;-88
2021/01/22 12:10:53;;;;;;;1.17;1.00;;;14.70;90.10;;;;;;6218275;23;20409;-87
2021/01/22 12:13:20;;;;;;;1.53;0.97;;;14.80;90.10;;;;;;6216669;23;20415;-87
2021/01/22 12:15:46;;;;;;;0.50;0.50;;;14.80;89.90;;;;;;6215875;23;20405;-89
2021/01/22 12:18:12;;;;;;;0.80;0.70;;;14.90;89.80;;;;;;6215379;23;20419;-89
2021/01/22 12:20:39;;;;;;;2.97;0.70;;;14.90;88.90;;;;;;6215490;23;20413;-88
2021/01/22 12:23:07;;;;;;;2.77;1.10;;;14.80;88.60;;;;;;6216977;23;20411;-88
2021/01/22 12:25:33;;;;;;;1.27;1.00;;;14.80;88.50;;;;;;6217876;23;20469;-87
2021/01/22 12:28:00;;;;;;;3.23;1.30;;;14.70;88.10;;;;;;6219193;23;20427;-88
2021/01/22 12:30:26;;;;;;;0.90;0.87;;;14.70;88.40;;;;;;6216941;23;20925;-87
2021/01/22 12:32:53;;;;;;;1.23;1.10;;;14.80;87.50;;;;;;6215004;23;20928;-87
2021/01/22 12:35:21;;;;;;;1.00;0.80;;;14.80;86.50;;;;;;6215372;23;20409;-87
2021/01/22 12:37:47;;;;;;;0.93;0.60;;;15.00;86.20;;;;;;6227765;23;20435;-86
2021/01/22 12:40:14;;;;;;;6.13;3.37;;;15.60;86.30;;;;;;6241406;23;20416;-85
2021/01/22 12:42:41;;;;;;;0.63;0.63;;;16.60;85.40;;;;;;6233249;23;20544;-87
2021/01/22 12:45:09;;;;;;;1.50;1.40;;;17.40;80.80;;;;;;6217209;23;20487;-88
2021/01/22 12:50:24;;;;;;;0.73;0.73;;;17.40;78.90;;;;;;6211374;23;20404;-93
2021/01/22 12:52:52;;;;;;;0.90;0.67;;;17.10;77.70;;;;;;6219645;23;20929;-92
2021/01/22 12:55:18;;;;;;;0.87;0.70;;;16.70;77.90;;;;;;6218972;23;20407;-90
2021/01/22 13:00:36;;;;;;;0.73;0.67;;;16.00;79.70;;;;;;6211393;23;20481;-86
2021/01/22 13:03:02;;;;;;;1.80;0.87;;;15.80;80.50;;;;;;6215330;23;20410;-89
2021/01/22 13:05:29;;;;;;;0.70;0.70;;;15.60;81.00;;;;;;6214796;23;20897;-88
2021/01/22 13:07:56;;;;;;;0.60;0.60;;;15.50;81.40;;;;;;6215062;23;20429;-89
2021/01/22 13:10:22;;;;;;;0.77;0.60;;;15.40;81.80;;;;;;6214503;23;20418;-87
2021/01/22 13:12:49;;;;;;;2.77;0.60;;;15.30;82.20;;;;;;6212574;23;20473;-89
2021/01/22 13:15:16;;;;;;;0.90;0.70;;;15.30;82.20;;;;;;6214743;23;20414;-88
2021/01/22 13:17:43;;;;;;;3.70;1.00;;;15.20;81.90;;;;;;6214678;23;20992;-88
2021/01/22 13:20:10;;;;;;;4.10;1.00;;;15.10;82.00;;;;;;6214756;23;20741;-88
2021/01/22 13:22:37;;;;;;;0.90;0.90;;;15.10;82.30;;;;;;6214350;23;20417;-88
2021/01/22 13:25:04;;;;;;;0.83;0.50;;;15.20;82.00;;;;;;6214696;23;20959;-88
2021/01/22 13:27:30;;;;;;;0.80;0.80;;;15.10;81.70;;;;;;6214457;23;20428;-87
2021/01/22 13:29:57;;;;;;;1.83;0.90;;;15.20;82.30;;;;;;6214482;23;20738;-88
2021/01/22 13:32:23;;;;;;;1.10;0.73;;;15.20;81.70;;;;;;6214008;23;20417;-87
2021/01/22 13:34:50;;;;;;;1.00;1.00;;;15.30;82.50;;;;;;6214543;23;20406;-89
2021/01/22 13:37:17;;;;;;;0.77;0.77;;;15.30;81.30;;;;;;6214668;23;20721;-88
2021/01/22 13:39:44;;;;;;;2.00;1.00;;;15.40;80.70;;;;;;6216287;23;20421;-91
2021/01/22 13:42:10;;;;;;;0.70;0.60;;;15.50;81.20;;;;;;6214197;23;20467;-88
2021/01/22 13:44:36;;;;;;;0.70;0.70;;;15.60;80.80;;;;;;6218650;23;20447;-90
2021/01/22 13:47:09;;;;;;;1.00;0.90;;;15.70;81.40;;;;;;6214591;23;20467;-90
2021/01/22 13:49:41;;;;;;;0.73;0.73;;;15.80;80.60;;;;;;6217716;23;20467;-90
2021/01/22 13:52:09;;;;;;;3.10;0.97;;;15.70;79.40;;;;;;6213941;23;20418;-91
2021/01/22 13:54:36;;;;;;;0.60;0.60;;;15.60;80.50;;;;;;6214177;23;20406;-87
2021/01/22 13:57:03;;;;;;;0.80;0.80;;;15.60;80.80;;;;;;6214264;23;20411;-88
2021/01/22 13:59:29;;;;;;;1.10;0.83;;;15.60;80.20;;;;;;6213557;23;20964;-93
2021/01/22 14:01:55;;;;;;;1.80;0.80;;;15.40;79.40;;;;;;6214705;23;20960;-88
2021/01/22 14:04:22;;;;;;;1.00;0.77;;;15.10;81.00;;;;;;6214263;23;20445;-89
2021/01/22 14:06:48;;;;;;;2.77;1.40;;;14.50;85.40;;;;;;6213963;23;20490;-88
2021/01/22 14:09:15;;;;;;;2.30;2.00;;;13.80;90.50;;;;;;6213974;23;20429;-88
2021/01/22 14:11:41;;;;;;;8.50;2.97;;;13.50;92.30;;;;;;6214169;23;20904;-89
2021/01/22 14:14:09;;;;;;;3.27;2.30;;;13.20;93.10;;;;;;6214377;23;20428;-89
2021/01/22 14:16:35;;;;;;;2.53;2.33;;;12.90;94.50;;;;;;6214264;23;20412;-90
2021/01/22 14:19:01;;;;;;;2.90;2.70;;;12.40;95.60;;;;;;6213971;23;20425;-91
2021/01/22 14:21:28;;;;;;;3.00;2.80;;;12.20;96.80;;;;;;6214457;23;20412;-91
2021/01/22 14:23:57;;;;;;;3.63;3.23;;;11.60;97.60;;;;;;6215217;23;20779;-91
2021/01/22 14:26:24;;;;;;;4.40;3.70;;;11.10;99.00;;;;;;6216218;23;20410;-91
2021/01/22 14:28:50;;;;;;;3.77;3.43;;;10.70;99.90;;;;;;6216097;23;20833;-89
2021/01/22 14:31:16;;;;;;;5.17;4.80;;;10.40;99.90;;;;;;6217788;23;20412;-89
2021/01/22 14:33:43;;;;;;;5.60;5.18;;;10.10;99.90;;;;;;6220440;23;20435;-88
2021/01/22 14:36:09;;;;;;;5.68;5.28;;;9.80;99.90;;;;;;6217436;23;20257;-90
2021/01/22 14:38:36;;;;;;;6.65;5.85;;;9.40;99.90;;;;;;6216406;23;20274;-89